createdAt,value
2022-09-17T00:01:22.311Z,1.83
2022-09-17T00:03:55.897Z,1.53
2022-09-17T00:06:24.794Z,1.50
2022-09-17T00:08:56.723Z,1.40
2022-09-17T00:11:30.057Z,1.67
2022-09-17T00:14:00.814Z,1.50
2022-09-17T00:16:33.014Z,1.40
2022-09-17T00:19:00.995Z,1.70
2022-09-17T00:21:28.385Z,1.70
2022-09-17T00:24:05.155Z,1.50
2022-09-17T00:26:33.331Z,1.60
2022-09-17T00:29:03.622Z,1.50
2022-09-17T00:31:31.273Z,1.53
2022-09-17T00:34:05.193Z,1.80
2022-09-17T00:36:34.984Z,1.90
2022-09-17T00:39:01.690Z,1.90
2022-09-17T00:41:31.333Z,1.73
2022-09-17T00:44:00.871Z,2.00
2022-09-17T00:46:44.512Z,1.60
2022-09-17T00:49:19.585Z,1.73
2022-09-17T00:52:00.312Z,2.20
2022-09-17T00:54:28.362Z,1.80
2022-09-17T00:56:55.291Z,1.67
2022-09-17T00:59:23.335Z,1.27
2022-09-17T01:01:50.526Z,1.40
2022-09-17T01:04:24.238Z,1.00
2022-09-17T01:07:00.920Z,1.37
2022-09-17T01:09:48.895Z,1.13
2022-09-17T01:12:31.671Z,1.30
2022-09-17T01:15:26.118Z,1.40
2022-09-17T01:18:09.041Z,1.47
2022-09-17T01:20:50.858Z,1.17
2022-09-17T01:23:57.075Z,1.30
2022-09-17T01:27:02.619Z,1.23
2022-09-17T01:29:47.438Z,1.50
2022-09-17T01:32:31.176Z,1.70
2022-09-17T01:35:21.482Z,1.63
2022-09-17T01:38:19.023Z,1.50
2022-09-17T01:41:08.097Z,1.57
2022-09-17T01:43:42.466Z,1.53
2022-09-17T01:46:23.086Z,1.87
2022-09-17T01:48:57.901Z,1.63
2022-09-17T01:51:28.997Z,2.07
2022-09-17T01:54:03.086Z,1.50
2022-09-17T01:56:38.479Z,2.33
2022-09-17T01:59:17.312Z,1.80
2022-09-17T02:01:51.646Z,1.97
2022-09-17T02:04:37.361Z,1.97
2022-09-17T02:07:09.080Z,1.70
2022-09-17T02:09:52.043Z,1.97
2022-09-17T02:12:23.359Z,1.90
2022-09-17T02:14:53.999Z,1.90
2022-09-17T02:17:49.794Z,2.07
2022-09-17T02:20:22.179Z,1.90
2022-09-17T02:23:02.586Z,2.30
2022-09-17T02:25:37.691Z,1.80
2022-09-17T02:28:17.465Z,2.17
2022-09-17T02:30:44.529Z,2.13
2022-09-17T02:33:14.702Z,1.93
2022-09-17T02:35:44.063Z,2.03
2022-09-17T02:38:11.427Z,1.90
2022-09-17T02:40:48.841Z,2.20
2022-09-17T02:43:56.378Z,2.00
2022-09-17T02:46:53.955Z,1.73
2022-09-17T02:49:50.191Z,1.60
2022-09-17T02:52:34.980Z,1.77
2022-09-17T02:55:12.998Z,1.70
2022-09-17T02:57:54.415Z,1.97
2022-09-17T03:00:22.995Z,1.80
2022-09-17T03:02:56.268Z,1.57
2022-09-17T03:05:25.071Z,1.77
2022-09-17T03:07:51.876Z,1.80
2022-09-17T03:10:20.017Z,1.90
2022-09-17T03:12:46.884Z,1.90
2022-09-17T03:15:13.707Z,2.20
2022-09-17T03:17:40.639Z,1.80
2022-09-17T03:20:08.138Z,2.10
2022-09-17T03:22:35.727Z,1.97
2022-09-17T03:25:02.427Z,2.20
2022-09-17T03:27:29.157Z,2.30
2022-09-17T03:29:56.227Z,2.47
2022-09-17T03:32:22.905Z,2.00
2022-09-17T03:34:49.553Z,2.03
2022-09-17T03:37:16.360Z,2.20
2022-09-17T03:39:43.127Z,2.30
2022-09-17T03:42:09.774Z,1.90
2022-09-17T03:44:36.500Z,2.30
2022-09-17T03:47:03.314Z,1.97
2022-09-17T03:49:29.980Z,1.90
2022-09-17T03:51:56.770Z,1.67
2022-09-17T03:54:23.463Z,1.57
2022-09-17T03:56:50.144Z,1.50
2022-09-17T03:59:16.914Z,1.70
2022-09-17T04:01:43.964Z,1.20
2022-09-17T04:04:10.938Z,1.33
2022-09-17T04:06:37.681Z,1.20
2022-09-17T04:09:05.432Z,1.10
2022-09-17T04:11:32.188Z,1.10
2022-09-17T04:13:59.066Z,1.17
2022-09-17T04:16:25.836Z,1.20
2022-09-17T04:18:52.679Z,1.27
2022-09-17T04:21:19.426Z,1.20
2022-09-17T04:23:46.286Z,1.10
2022-09-17T04:26:13.092Z,1.30
2022-09-17T04:28:39.763Z,1.60
2022-09-17T04:31:06.514Z,1.80
2022-09-17T04:33:33.368Z,1.50
2022-09-17T04:36:00.078Z,1.60
2022-09-17T04:38:26.770Z,1.40
2022-09-17T04:40:54.547Z,1.83
2022-09-17T04:43:21.248Z,1.70
2022-09-17T04:45:48.441Z,1.93
2022-09-17T04:48:15.158Z,2.10
2022-09-17T04:50:41.997Z,2.13
2022-09-17T04:53:08.695Z,2.30
2022-09-17T04:55:35.384Z,2.20
2022-09-17T04:58:02.080Z,2.47
2022-09-17T05:00:28.796Z,2.57
2022-09-17T05:02:56.097Z,2.50
2022-09-17T05:05:25.505Z,2.30
2022-09-17T05:07:52.194Z,2.13
2022-09-17T05:10:21.041Z,2.30
2022-09-17T05:12:52.516Z,1.80
2022-09-17T05:15:19.928Z,2.10
2022-09-17T05:17:47.272Z,2.00
2022-09-17T05:20:15.319Z,1.73
2022-09-17T05:22:50.552Z,1.70
2022-09-17T05:25:19.670Z,1.70
2022-09-17T05:27:46.489Z,1.80
2022-09-17T05:30:13.482Z,1.60
2022-09-17T05:32:40.825Z,1.70
2022-09-17T05:35:08.588Z,1.60
2022-09-17T05:37:35.313Z,1.80
2022-09-17T05:40:04.793Z,1.80
2022-09-17T05:42:31.609Z,2.00
2022-09-17T05:44:58.445Z,2.30
2022-09-17T05:47:26.285Z,2.17
2022-09-17T05:49:52.967Z,2.50
2022-09-17T05:52:19.702Z,2.73
2022-09-17T05:54:46.780Z,2.53
2022-09-17T05:57:13.518Z,2.63
2022-09-17T05:59:40.181Z,2.50
2022-09-17T06:02:06.935Z,2.67
2022-09-17T06:04:35.130Z,2.80
2022-09-17T06:07:07.363Z,2.90
2022-09-17T06:09:37.455Z,2.73
2022-09-17T06:12:05.372Z,2.83
2022-09-17T06:14:32.215Z,2.67
2022-09-17T06:16:58.978Z,3.03
2022-09-17T06:19:25.722Z,3.17
2022-09-17T06:21:52.381Z,3.03
2022-09-17T06:24:19.039Z,3.23
2022-09-17T06:26:45.883Z,3.20
2022-09-17T06:29:15.159Z,3.63
2022-09-17T06:31:44.956Z,3.20
2022-09-17T06:34:12.379Z,3.13
2022-09-17T06:36:39.207Z,3.73
2022-09-17T06:39:06.537Z,3.63
2022-09-17T06:41:33.459Z,4.00
2022-09-17T06:44:00.286Z,3.33
2022-09-17T06:46:27.613Z,3.70
2022-09-17T06:48:54.315Z,4.57
2022-09-17T06:51:22.588Z,4.33
2022-09-17T06:53:49.393Z,4.13
2022-09-17T06:56:16.644Z,4.40
2022-09-17T06:58:43.894Z,4.43
2022-09-17T07:01:12.334Z,5.20
2022-09-17T07:03:39.582Z,5.10
2022-09-17T07:06:12.709Z,5.30
2022-09-17T07:08:39.787Z,6.30
2022-09-17T07:11:08.118Z,6.00
2022-09-17T07:13:35.128Z,6.70
2022-09-17T07:16:03.948Z,5.90
2022-09-17T07:18:30.857Z,5.73
2022-09-17T07:21:00.272Z,6.47
2022-09-17T07:23:29.319Z,7.20
2022-09-17T07:25:58.646Z,7.63
2022-09-17T07:28:26.097Z,8.07
2022-09-17T07:30:53.643Z,6.90
2022-09-17T07:33:23.472Z,7.03
2022-09-17T07:36:01.636Z,6.13
2022-09-17T07:38:29.720Z,5.93
2022-09-17T07:41:04.933Z,5.80
2022-09-17T07:43:33.525Z,4.97
2022-09-17T07:46:02.039Z,4.67
2022-09-17T07:48:29.602Z,4.10
2022-09-17T07:50:56.859Z,4.40
2022-09-17T07:53:23.842Z,4.20
2022-09-17T07:55:58.630Z,4.50
2022-09-17T07:58:31.040Z,4.33
2022-09-17T08:01:05.632Z,4.13
2022-09-17T08:03:32.681Z,4.70
2022-09-17T08:06:07.148Z,4.77
2022-09-17T08:08:35.901Z,4.00
2022-09-17T08:11:04.568Z,4.50
2022-09-17T08:13:32.112Z,4.07
2022-09-17T08:16:05.433Z,3.90
2022-09-17T08:18:32.863Z,3.37
2022-09-17T08:21:01.165Z,4.23
2022-09-17T08:23:28.833Z,4.10
2022-09-17T08:25:57.032Z,3.40
2022-09-17T08:28:25.569Z,3.47
2022-09-17T08:30:53.178Z,4.00
2022-09-17T08:33:20.905Z,2.73
2022-09-17T08:35:59.731Z,3.10
2022-09-17T08:38:37.214Z,2.42
2022-09-17T08:41:11.592Z,2.55
2022-09-17T08:43:53.147Z,2.33
2022-09-17T08:46:19.998Z,1.90
2022-09-17T08:48:56.396Z,1.92
2022-09-17T08:51:48.803Z,2.05
2022-09-17T08:54:22.213Z,1.70
2022-09-17T08:56:58.712Z,1.70
2022-09-17T08:59:34.834Z,1.90
2022-09-17T09:02:33.848Z,1.95
2022-09-17T09:05:15.814Z,1.75
2022-09-17T09:08:14.766Z,1.70
2022-09-17T09:10:46.096Z,1.75
2022-09-17T09:13:17.659Z,1.80
2022-09-17T09:15:49.140Z,1.92
2022-09-17T09:18:25.878Z,1.77
2022-09-17T09:21:07.375Z,1.70
2022-09-17T09:24:01.705Z,1.50
2022-09-17T09:27:15.292Z,1.95
2022-09-17T09:30:06.560Z,1.75
2022-09-17T09:32:55.654Z,1.85
2022-09-17T09:35:35.866Z,1.80
2022-09-17T09:38:27.664Z,2.20
2022-09-17T09:41:11.643Z,2.50
2022-09-17T09:44:12.585Z,2.38
2022-09-17T09:47:07.760Z,2.33
2022-09-17T09:49:56.296Z,2.50
2022-09-17T09:52:44.983Z,1.70
2022-09-17T09:55:26.695Z,2.30
2022-09-17T09:58:19.597Z,2.13
2022-09-17T10:00:47.680Z,1.70
2022-09-17T10:03:32.388Z,1.92
2022-09-17T10:06:04.734Z,1.42
2022-09-17T10:08:34.511Z,1.60
2022-09-17T10:11:21.664Z,1.65
2022-09-17T10:13:48.506Z,1.38
2022-09-17T10:16:23.594Z,1.10
2022-09-17T10:19:10.964Z,0.95
2022-09-17T10:21:40.689Z,1.00
2022-09-17T10:24:27.835Z,0.90
2022-09-17T10:27:15.494Z,0.80
2022-09-17T10:29:47.485Z,0.70
2022-09-17T10:32:19.447Z,0.88
2022-09-17T10:35:04.888Z,0.80
2022-09-17T10:37:36.031Z,0.70
2022-09-17T10:40:22.890Z,1.10
2022-09-17T10:43:21.408Z,1.20
2022-09-17T10:45:58.945Z,1.17
2022-09-17T10:48:39.925Z,0.93
2022-09-17T10:51:08.961Z,1.45
2022-09-17T10:53:59.092Z,1.38
2022-09-17T10:56:33.556Z,1.58
2022-09-17T10:59:22.551Z,1.60
2022-09-17T11:01:56.648Z,1.38
2022-09-17T11:04:51.954Z,1.65
2022-09-17T11:07:34.228Z,1.30
2022-09-17T11:10:10.039Z,1.50
2022-09-17T11:13:13.130Z,1.77
2022-09-17T11:16:06.705Z,1.70
2022-09-17T11:19:06.789Z,2.08
2022-09-17T11:22:05.615Z,1.98
2022-09-17T11:24:51.107Z,1.98
2022-09-17T11:27:26.553Z,1.80
2022-09-17T11:30:15.779Z,2.17
2022-09-17T11:33:01.793Z,2.05
2022-09-17T11:35:36.748Z,1.77
2022-09-17T11:38:25.562Z,1.90
2022-09-17T11:41:11.049Z,1.50
2022-09-17T11:43:46.507Z,1.70
2022-09-17T11:46:29.719Z,1.50
2022-09-17T11:49:01.779Z,1.50
2022-09-17T11:51:31.811Z,1.20
2022-09-17T11:54:19.102Z,1.10
2022-09-17T11:56:49.717Z,1.00
2022-09-17T11:59:37.920Z,1.08
2022-09-17T12:02:44.028Z,1.20
2022-09-17T12:05:31.718Z,1.15
2022-09-17T12:08:14.482Z,1.20
2022-09-17T12:10:49.884Z,1.35
2022-09-17T12:13:22.370Z,1.42
2022-09-17T12:15:54.411Z,1.55
2022-09-17T12:18:58.930Z,1.13
2022-09-17T12:21:37.047Z,1.27
2022-09-17T12:24:19.145Z,1.33
2022-09-17T12:27:01.242Z,1.58
2022-09-17T12:29:38.513Z,1.60
2022-09-17T12:32:27.148Z,1.42
2022-09-17T12:35:05.902Z,1.58
2022-09-17T12:37:46.126Z,1.10
2022-09-17T12:40:25.301Z,1.30
2022-09-17T12:43:06.849Z,1.52
2022-09-17T12:45:50.505Z,1.58
2022-09-17T12:48:41.751Z,1.70
2022-09-17T12:51:14.197Z,1.42
2022-09-17T12:54:03.523Z,1.60
2022-09-17T12:56:48.572Z,1.00
2022-09-17T12:59:19.430Z,1.00
2022-09-17T13:02:18.142Z,1.02
2022-09-17T13:05:13.098Z,1.10
2022-09-17T13:07:45.941Z,1.20
2022-09-17T13:10:15.353Z,1.27
2022-09-17T13:13:11.367Z,1.10
2022-09-17T13:16:13.312Z,1.50
2022-09-17T13:19:22.022Z,1.10
2022-09-17T13:22:07.106Z,1.02
2022-09-17T13:24:35.071Z,0.90
2022-09-17T13:27:04.456Z,0.90
2022-09-17T13:29:46.570Z,1.13
2022-09-17T13:32:35.195Z,1.40
2022-09-17T13:35:14.586Z,1.38
2022-09-17T13:37:56.708Z,1.20
2022-09-17T13:40:26.472Z,1.17
2022-09-17T13:42:59.314Z,1.30
2022-09-17T13:45:26.705Z,1.63
2022-09-17T13:48:11.632Z,1.55
2022-09-17T13:50:43.646Z,1.58
2022-09-17T13:53:27.634Z,1.85
2022-09-17T13:56:01.064Z,1.63
2022-09-17T13:58:43.241Z,1.67
2022-09-17T14:01:13.587Z,1.50
2022-09-17T14:03:48.783Z,1.73
2022-09-17T14:06:15.430Z,1.73
2022-09-17T14:08:45.195Z,1.35
2022-09-17T14:11:24.349Z,1.92
2022-09-17T14:13:55.382Z,1.45
2022-09-17T14:16:37.726Z,1.67
2022-09-17T14:19:16.976Z,1.40
2022-09-17T14:22:00.936Z,1.40
2022-09-17T14:24:43.408Z,1.17
2022-09-17T14:27:28.631Z,1.23
2022-09-17T14:30:18.269Z,1.23
2022-09-17T14:33:08.799Z,1.42
2022-09-17T14:35:41.617Z,1.30
2022-09-17T14:38:28.883Z,1.30
2022-09-17T14:41:17.829Z,1.55
2022-09-17T14:44:05.615Z,1.40
2022-09-17T14:46:49.940Z,1.30
2022-09-17T14:49:30.469Z,1.67
2022-09-17T14:51:58.677Z,1.60
2022-09-17T14:54:35.102Z,1.33
2022-09-17T14:57:34.556Z,1.55
2022-09-17T15:00:01.489Z,1.42
2022-09-17T15:02:44.096Z,1.83
2022-09-17T15:05:36.209Z,2.10
2022-09-17T15:08:10.412Z,2.15
2022-09-17T15:10:48.094Z,1.80
2022-09-17T15:13:19.011Z,2.22
2022-09-17T15:16:16.564Z,1.95
2022-09-17T15:19:02.391Z,1.80
2022-09-17T15:21:36.747Z,1.35
2022-09-17T15:24:37.413Z,1.95
2022-09-17T15:27:21.064Z,2.90
2022-09-17T15:29:51.506Z,2.28
2022-09-17T15:32:19.264Z,2.45
2022-09-17T15:34:46.330Z,2.72
2022-09-17T15:37:21.826Z,2.70
2022-09-17T15:39:54.189Z,2.88
2022-09-17T15:42:27.787Z,3.40
2022-09-17T15:45:21.670Z,2.60
2022-09-17T15:47:49.589Z,2.53
2022-09-17T15:50:47.886Z,2.67
2022-09-17T15:53:21.950Z,2.75
2022-09-17T15:56:13.157Z,3.35
2022-09-17T15:58:43.089Z,3.10
2022-09-17T16:01:16.024Z,3.80
2022-09-17T16:03:45.767Z,3.88
2022-09-17T16:06:18.254Z,3.58
2022-09-17T16:08:56.212Z,2.63
2022-09-17T16:11:25.435Z,2.33
2022-09-17T16:13:54.666Z,2.70
2022-09-17T16:16:24.027Z,3.08
2022-09-17T16:18:51.129Z,3.28
2022-09-17T16:21:19.458Z,2.38
2022-09-17T16:23:46.779Z,2.20
2022-09-17T16:26:20.362Z,2.28
2022-09-17T16:28:50.612Z,1.98
2022-09-17T16:31:17.317Z,2.17
2022-09-17T16:33:44.017Z,2.05
2022-09-17T16:36:10.828Z,2.38
2022-09-17T16:38:38.779Z,3.33
2022-09-17T16:41:06.090Z,3.03
2022-09-17T16:43:33.797Z,3.17
2022-09-17T16:46:09.123Z,2.85
2022-09-17T16:48:36.220Z,2.60
2022-09-17T16:51:10.886Z,2.17
2022-09-17T16:53:38.774Z,3.90
2022-09-17T16:56:09.429Z,2.40
2022-09-17T16:58:36.413Z,1.77
2022-09-17T17:01:13.413Z,2.63
2022-09-17T17:03:40.551Z,3.30
2022-09-17T17:06:15.272Z,2.55
2022-09-17T17:08:41.945Z,2.60
2022-09-17T17:11:08.613Z,2.47
2022-09-17T17:13:35.630Z,2.47
2022-09-17T17:16:09.542Z,2.97
2022-09-17T17:18:36.639Z,2.97
2022-09-17T17:21:11.629Z,2.85
2022-09-17T17:23:38.407Z,2.50
2022-09-17T17:26:06.180Z,3.15
2022-09-17T17:28:35.193Z,3.17
2022-09-17T17:31:03.360Z,2.25
2022-09-17T17:33:30.243Z,2.40
2022-09-17T17:36:03.987Z,1.95
2022-09-17T17:38:34.176Z,1.73
2022-09-17T17:41:08.229Z,3.10
2022-09-17T17:43:35.427Z,4.10
2022-09-17T17:46:04.830Z,2.70
2022-09-17T17:48:31.534Z,2.42
2022-09-17T17:51:06.508Z,2.17
2022-09-17T17:53:33.293Z,2.70
2022-09-17T17:56:01.887Z,2.30
2022-09-17T17:58:28.778Z,2.20
2022-09-17T18:00:55.948Z,2.60
2022-09-17T18:03:25.210Z,3.07
2022-09-17T18:05:56.305Z,3.05
2022-09-17T18:08:24.299Z,2.97
2022-09-17T18:10:56.049Z,2.90
2022-09-17T18:13:24.070Z,3.10
2022-09-17T18:15:56.566Z,3.70
2022-09-17T18:18:24.373Z,4.07
2022-09-17T18:20:53.344Z,4.50
2022-09-17T18:23:21.045Z,4.68
2022-09-17T18:25:55.117Z,5.28
2022-09-17T18:28:22.628Z,4.93
2022-09-17T18:30:50.071Z,4.50
2022-09-17T18:33:21.784Z,3.30
2022-09-17T18:35:48.558Z,3.37
2022-09-17T18:38:16.490Z,3.87
2022-09-17T18:40:44.288Z,3.55
2022-09-17T18:43:11.032Z,3.30
2022-09-17T18:45:37.918Z,4.40
2022-09-17T18:48:05.963Z,4.13
2022-09-17T18:50:33.210Z,4.10
2022-09-17T18:53:00.160Z,3.70
2022-09-17T18:55:27.253Z,3.80
2022-09-17T18:57:57.068Z,2.90
2022-09-17T19:00:24.556Z,2.77
2022-09-17T19:02:51.374Z,2.77
2022-09-17T19:05:18.125Z,4.80
2022-09-17T19:07:48.553Z,8.50
2022-09-17T19:10:15.679Z,5.83
2022-09-17T19:12:42.552Z,4.23
2022-09-17T19:15:10.512Z,3.27
2022-09-17T19:17:37.541Z,4.07
2022-09-17T19:20:05.131Z,4.07
2022-09-17T19:22:32.549Z,4.00
2022-09-17T19:24:59.689Z,3.50
2022-09-17T19:27:26.565Z,3.53
2022-09-17T19:29:53.587Z,3.33
2022-09-17T19:32:20.717Z,2.70
2022-09-17T19:34:47.628Z,2.90
2022-09-17T19:37:14.439Z,2.80
2022-09-17T19:39:41.249Z,3.40
2022-09-17T19:42:08.127Z,3.00
2022-09-17T19:44:34.826Z,2.70
2022-09-17T19:47:01.596Z,3.23
2022-09-17T19:49:28.320Z,3.43
2022-09-17T19:51:55.247Z,3.40
2022-09-17T19:54:22.213Z,3.47
2022-09-17T19:56:49.023Z,3.77
2022-09-17T19:59:15.710Z,3.10
2022-09-17T20:01:46.100Z,3.97
2022-09-17T20:04:18.341Z,3.40
2022-09-17T20:06:47.203Z,4.07
2022-09-17T20:09:13.927Z,4.03
2022-09-17T20:11:42.153Z,3.63
2022-09-17T20:14:10.755Z,3.87
2022-09-17T20:16:39.163Z,4.77
2022-09-17T20:19:07.262Z,4.03
2022-09-17T20:21:34.305Z,3.60
2022-09-17T20:24:01.315Z,4.00
2022-09-17T20:26:28.342Z,3.37
2022-09-17T20:28:55.662Z,2.80
2022-09-17T20:31:25.027Z,3.30
2022-09-17T20:33:56.868Z,3.43
2022-09-17T20:36:33.537Z,3.67
2022-09-17T20:39:21.933Z,4.20
2022-09-17T20:41:51.188Z,4.10
2022-09-17T20:44:17.981Z,5.30
2022-09-17T20:46:48.527Z,8.20
2022-09-17T20:49:19.011Z,9.77
2022-09-17T20:51:45.893Z,7.57
2022-09-17T20:54:15.014Z,4.53
2022-09-17T20:56:44.353Z,4.10
2022-09-17T20:59:19.574Z,2.83
2022-09-17T21:01:51.328Z,3.20
2022-09-17T21:04:20.088Z,3.20
2022-09-17T21:06:47.716Z,2.90
2022-09-17T21:09:15.880Z,2.60
2022-09-17T21:11:47.418Z,3.00
2022-09-17T21:14:18.553Z,2.93
2022-09-17T21:16:45.853Z,3.47
2022-09-17T21:19:16.716Z,3.30
2022-09-17T21:21:43.995Z,3.60
2022-09-17T21:24:13.500Z,3.77
2022-09-17T21:26:40.293Z,3.20
2022-09-17T21:29:07.033Z,3.27
2022-09-17T21:31:37.068Z,3.33
2022-09-17T21:34:06.618Z,3.40
2022-09-17T21:36:37.340Z,3.20
2022-09-17T21:39:07.746Z,2.67
2022-09-17T21:41:37.589Z,3.40
2022-09-17T21:44:06.759Z,3.67
2022-09-17T21:46:35.367Z,3.80
2022-09-17T21:49:03.244Z,3.53
2022-09-17T21:51:43.822Z,3.27
2022-09-17T21:54:18.324Z,3.10
2022-09-17T21:56:46.103Z,2.57
2022-09-17T21:59:14.583Z,2.90
2022-09-17T22:01:47.341Z,2.83
2022-09-17T22:04:17.589Z,3.27
2022-09-17T22:06:48.320Z,2.80
2022-09-17T22:09:18.674Z,2.73
2022-09-17T22:11:49.450Z,2.50
2022-09-17T22:14:19.618Z,2.43
2022-09-17T22:16:48.953Z,2.50
2022-09-17T22:19:18.020Z,2.50
2022-09-17T22:21:47.437Z,2.10
2022-09-17T22:24:16.122Z,1.90
2022-09-17T22:26:45.927Z,1.93
2022-09-17T22:29:18.596Z,2.20
2022-09-17T22:31:46.412Z,1.77
2022-09-17T22:34:15.615Z,1.90
2022-09-17T22:36:42.316Z,1.53
2022-09-17T22:39:09.853Z,1.80
2022-09-17T22:41:44.439Z,1.67
2022-09-17T22:44:19.636Z,2.00
2022-09-17T22:46:48.633Z,1.90
2022-09-17T22:49:15.675Z,1.93
2022-09-17T22:51:44.365Z,1.50
2022-09-17T22:54:14.306Z,1.60
2022-09-17T22:56:44.722Z,1.60
2022-09-17T22:59:11.582Z,1.70
2022-09-17T23:01:40.324Z,1.67
2022-09-17T23:04:07.678Z,1.70
2022-09-17T23:06:41.071Z,1.70
2022-09-17T23:09:09.345Z,1.53
2022-09-17T23:11:39.938Z,2.00
2022-09-17T23:14:12.103Z,1.83
2022-09-17T23:16:44.723Z,1.60
2022-09-17T23:19:12.817Z,1.70
2022-09-17T23:21:40.393Z,1.80
2022-09-17T23:24:07.733Z,1.63
2022-09-17T23:26:34.819Z,1.67
2022-09-17T23:29:05.372Z,2.10
2022-09-17T23:31:34.748Z,2.00
2022-09-17T23:34:02.167Z,1.70
2022-09-17T23:36:31.830Z,1.90
2022-09-17T23:38:59.691Z,2.10
2022-09-17T23:41:32.222Z,1.73
2022-09-17T23:44:04.154Z,1.73
2022-09-17T23:46:33.425Z,1.50
2022-09-17T23:49:00.618Z,1.90
2022-09-17T23:51:30.695Z,2.07
2022-09-17T23:53:58.519Z,1.93
2022-09-17T23:56:27.223Z,1.80
2022-09-17T23:58:55.747Z,1.97
